Time;durP1;ratioP1;P1;durP2;ratioP2;P2;SDS_P1;SDS_P2;PMS_P1;PMS_P2;Temp;Humidity;BMP_temperature;BMP_pressure;BME280_temperature;BME280_humidity;BME280_pressure;Samples;Min_cycle;Max_cycle;Signal;HPM_P1;HPM_P2
2021/06/16 00:02:23;;;;;;;25.57;19.20;;;;;;;14.96;70.34;99092.05;125132;1093;64214;-91
2021/06/16 00:04:51;;;;;;;23.57;19.60;;;;;;;14.92;70.20;99097.64;125172;1093;64255;-90
2021/06/16 00:07:18;;;;;;;25.60;19.77;;;;;;;14.93;70.47;99095.83;125119;1093;64412;-91
2021/06/16 00:09:45;;;;;;;24.93;18.77;;;;;;;14.94;70.68;99100.20;125221;1093;64321;-91
2021/06/16 00:12:13;;;;;;;21.70;17.50;;;;;;;14.98;70.45;99101.67;125201;1093;64367;-91
2021/06/16 00:14:40;;;;;;;19.40;16.07;;;;;;;15.01;70.62;99105.90;125191;1092;64280;-90
2021/06/16 00:17:08;;;;;;;22.17;17.23;;;;;;;15.05;70.39;99100.16;125173;1091;64191;-90
2021/06/16 00:19:36;;;;;;;21.67;17.13;;;;;;;15.04;70.51;99100.30;125293;1093;64616;-91
2021/06/16 00:22:04;;;;;;;19.57;16.40;;;;;;;15.03;70.70;99103.94;125260;1093;64213;-90
2021/06/16 00:24:32;;;;;;;21.73;17.30;;;;;;;15.02;70.67;99107.63;125425;1093;64293;-91
2021/06/16 00:26:59;;;;;;;23.33;17.20;;;;;;;14.99;70.52;99108.73;125481;1093;64188;-91
2021/06/16 00:29:26;;;;;;;22.20;16.57;;;;;;;14.97;70.67;99102.63;125439;1093;64164;-92
2021/06/16 00:31:54;;;;;;;20.30;15.93;;;;;;;14.91;70.84;99105.83;125595;1093;64475;-89
2021/06/16 00:34:22;;;;;;;19.43;15.30;;;;;;;14.88;70.63;99114.14;125645;1093;64357;-89
2021/06/16 00:36:49;;;;;;;20.60;14.83;;;;;;;14.87;71.03;99107.05;125631;1093;64247;-89
2021/06/16 00:39:17;;;;;;;18.00;14.37;;;;;;;14.83;70.99;99102.94;125558;1093;64357;-89
2021/06/16 00:41:45;;;;;;;19.03;16.13;;;;;;;14.79;71.04;99107.69;125501;1091;64499;-90
2021/06/16 00:44:12;;;;;;;21.77;16.77;;;;;;;14.74;71.13;99106.37;125515;1093;64214;-90
2021/06/16 00:46:39;;;;;;;20.13;17.13;;;;;;;14.68;71.07;99102.36;125445;1094;64300;-91
2021/06/16 00:49:07;;;;;;;22.07;17.67;;;;;;;14.64;71.21;99095.53;125343;1093;64751;-89
2021/06/16 00:51:34;;;;;;;23.77;19.57;;;;;;;14.52;71.17;99102.73;125289;1093;64274;-92
2021/06/16 00:54:09;;;;;;;23.93;17.77;;;;;;;14.42;71.46;99099.09;125270;1093;64250;-90
2021/06/16 00:56:39;;;;;;;20.93;16.50;;;;;;;14.38;71.60;99095.81;125252;1093;64380;-86
2021/06/16 00:59:07;;;;;;;21.77;17.47;;;;;;;14.37;71.83;99093.25;125124;1094;64303;-87
2021/06/16 01:01:42;;;;;;;21.00;18.03;;;;;;;14.34;71.94;99094.34;125087;1093;64239;-88
2021/06/16 01:04:16;;;;;;;21.17;17.57;;;;;;;14.32;72.08;99090.08;125079;1093;64378;-88
2021/06/16 01:06:52;;;;;;;21.40;18.10;;;;;;;14.36;72.19;99092.41;125044;1093;64351;-88
2021/06/16 01:10:03;;;;;;;23.27;18.63;;;;;;;14.42;72.48;99091.89;124993;1093;64415;-88
2021/06/16 01:13:02;;;;;;;23.80;18.93;;;;;;;14.44;72.30;99086.42;124997;1093;64271;-90
2021/06/16 01:15:57;;;;;;;26.90;23.10;;;;;;;14.39;72.29;99084.11;124942;1093;64279;-90
2021/06/16 01:18:26;;;;;;;28.43;22.57;;;;;;;14.33;72.47;99092.66;124677;1093;64373;-90
2021/06/16 01:20:56;;;;;;;28.00;22.67;;;;;;;14.28;72.79;99094.85;124944;1093;64409;-90
2021/06/16 01:23:50;;;;;;;27.43;22.73;;;;;;;14.28;72.97;99090.34;125058;1093;64788;-90
2021/06/16 01:26:49;;;;;;;30.03;21.90;;;;;;;14.26;72.96;99084.24;124994;1093;64277;-90
2021/06/16 01:29:21;;;;;;;26.83;21.43;;;;;;;14.26;72.88;99086.92;124960;1093;64271;-91
2021/06/16 01:31:50;;;;;;;27.17;22.13;;;;;;;14.32;73.14;99090.93;125045;1093;64200;-90
2021/06/16 01:34:21;;;;;;;30.20;22.43;;;;;;;14.37;73.23;99087.89;124961;1093;64274;-90
2021/06/16 01:36:50;;;;;;;26.47;22.33;;;;;;;14.48;73.39;99087.85;125045;1094;64785;-89
2021/06/16 01:39:23;;;;;;;24.13;21.50;;;;;;;14.54;73.22;99087.41;125035;1093;64293;-90
2021/06/16 01:41:55;;;;;;;26.60;21.63;;;;;;;14.58;73.12;99082.63;125039;1096;64281;-90
2021/06/16 01:44:23;;;;;;;26.15;20.50;;;;;;;14.61;73.23;99093.10;125089;1092;64376;-91
2021/06/16 01:46:52;;;;;;;24.07;20.80;;;;;;;14.58;73.21;99086.16;125115;1093;64294;-91
2021/06/16 01:49:24;;;;;;;25.80;19.83;;;;;;;14.60;73.17;99102.14;125095;1093;64312;-91
2021/06/16 01:51:54;;;;;;;26.00;18.65;;;;;;;14.61;73.26;99093.10;125155;1093;64244;-91
2021/06/16 01:54:24;;;;;;;24.53;18.53;;;;;;;14.63;73.36;99088.47;125144;1093;64246;-90
2021/06/16 01:56:54;;;;;;;23.77;18.40;;;;;;;14.64;73.45;99098.21;125196;1093;64207;-91
2021/06/16 01:59:22;;;;;;;24.50;17.95;;;;;;;14.64;73.35;99090.16;125133;1093;64277;-91
2021/06/16 02:01:50;;;;;;;24.10;18.70;;;;;;;14.64;73.41;99087.48;125264;1092;64248;-91
2021/06/16 02:04:17;;;;;;;22.60;18.80;;;;;;;14.65;73.55;99097.25;125230;1093;64335;-90
2021/06/16 02:07:09;;;;;;;22.13;19.00;;;;;;;14.62;73.54;99092.15;125284;1093;64311;-90
2021/06/16 02:09:38;;;;;;;26.93;19.80;;;;;;;14.60;73.54;99089.58;125354;1093;64389;-91
2021/06/16 02:12:11;;;;;;;23.88;20.33;;;;;;;14.58;73.59;99096.05;125276;1093;64310;-89
2021/06/16 02:14:51;;;;;;;23.73;19.63;;;;;;;14.58;73.57;99093.36;125291;1094;64463;-90
2021/06/16 02:17:20;;;;;;;25.47;19.20;;;;;;;14.58;73.92;99090.68;125381;1093;64367;-90
2021/06/16 02:19:48;;;;;;;21.70;19.50;;;;;;;14.55;73.67;99101.66;125380;1093;64252;-91
2021/06/16 02:22:16;;;;;;;22.63;18.57;;;;;;;14.53;74.02;99099.09;125365;1093;64223;-90
2021/06/16 02:24:45;;;;;;;22.63;18.50;;;;;;;14.55;74.15;99099.83;125399;1093;64709;-90
2021/06/16 02:27:13;;;;;;;21.67;18.43;;;;;;;14.57;74.13;99100.56;125564;1093;64393;-91
2021/06/16 02:29:40;;;;;;;24.80;19.57;;;;;;;14.63;74.15;99099.20;125618;1093;64274;-91
2021/06/16 02:32:08;;;;;;;23.77;20.10;;;;;;;14.66;74.14;99102.47;125627;1093;64297;-90
2021/06/16 02:34:36;;;;;;;22.70;19.70;;;;;;;14.69;73.98;99096.88;125845;1092;64284;-91
2021/06/16 02:37:07;;;;;;;22.47;19.53;;;;;;;14.73;74.25;99094.79;125765;1092;64197;-91
2021/06/16 02:39:41;;;;;;;25.37;19.63;;;;;;;14.73;74.25;99101.99;125836;1093;64415;-90
2021/06/16 02:42:11;;;;;;;20.67;18.47;;;;;;;14.73;73.99;99096.63;125738;1093;64388;-90
2021/06/16 02:44:48;;;;;;;24.38;19.23;;;;;;;14.74;73.90;99091.11;125768;1093;64316;-90
2021/06/16 02:47:17;;;;;;;20.53;17.87;;;;;;;14.74;74.13;99095.63;125870;1092;64374;-92
2021/06/16 02:49:56;;;;;;;21.83;18.33;;;;;;;14.75;74.22;99095.52;125740;1093;64287;-89
2021/06/16 02:52:24;;;;;;;23.10;19.33;;;;;;;14.80;73.93;99101.36;125692;1093;64291;-89
2021/06/16 02:54:58;;;;;;;26.23;18.93;;;;;;;14.89;73.96;99105.10;125534;1093;64271;-90
2021/06/16 02:57:28;;;;;;;21.70;19.40;;;;;;;14.97;73.88;99101.78;125540;1091;64291;-91
2021/06/16 02:59:57;;;;;;;22.30;19.73;;;;;;;15.00;73.53;99104.20;125390;1093;64290;-89
2021/06/16 03:02:26;;;;;;;23.47;19.93;;;;;;;15.06;73.44;99109.05;125318;1093;64772;-90
2021/06/16 03:04:56;;;;;;;22.23;17.97;;;;;;;15.10;73.64;99111.36;125141;1094;64329;-90
2021/06/16 03:07:26;;;;;;;22.80;19.17;;;;;;;15.11;73.65;99118.45;124987;1093;64347;-90
2021/06/16 03:09:55;;;;;;;20.67;16.87;;;;;;;15.17;73.48;99119.77;124937;1093;64307;-90
2021/06/16 03:12:24;;;;;;;20.27;17.37;;;;;;;15.22;73.31;99109.49;125006;1092;64251;-90
2021/06/16 03:14:52;;;;;;;21.63;18.03;;;;;;;15.27;73.18;99114.45;125035;1093;64367;-90
2021/06/16 03:17:21;;;;;;;22.83;17.83;;;;;;;15.30;73.28;99114.22;124982;1093;64795;-90
2021/06/16 03:19:49;;;;;;;20.93;18.80;;;;;;;15.32;72.89;99114.91;124974;1093;64319;-91
2021/06/16 03:22:18;;;;;;;23.27;20.00;;;;;;;15.33;72.67;99120.17;124963;1093;64399;-91
2021/06/16 03:24:49;;;;;;;22.38;19.70;;;;;;;15.34;72.86;99123.70;124962;1093;64377;-90
2021/06/16 03:27:16;;;;;;;;;;;;;;;15.46;73.18;99124.51;124992;1094;64746;-91
2021/06/16 03:29:43;;;;;;;20.83;17.17;;;;;;;16.38;72.13;99124.60;125043;1093;64282;-91
2021/06/16 03:32:11;;;;;;;18.05;15.20;;;;;;;17.39;70.39;99117.25;124992;1093;64348;-90
2021/06/16 03:34:39;;;;;;;18.53;15.43;;;;;;;18.15;69.01;99118.09;124998;1093;64315;-90
2021/06/16 03:37:10;;;;;;;16.80;14.43;;;;;;;18.83;67.32;99117.77;125012;1093;64276;-91
2021/06/16 03:39:37;;;;;;;16.90;14.67;;;;;;;19.43;66.32;99113.58;125048;1093;64389;-90
2021/06/16 03:42:06;;;;;;;17.57;15.70;;;;;;;19.98;65.12;99116.04;125019;1093;64309;-91
2021/06/16 03:44:38;;;;;;;16.70;14.90;;;;;;;20.51;63.98;99123.09;124861;1093;64367;-90
2021/06/16 03:47:07;;;;;;;17.30;15.43;;;;;;;21.01;62.81;99111.42;124894;1093;64194;-91
2021/06/16 03:49:39;;;;;;;16.83;13.85;;;;;;;21.43;61.99;99106.89;125082;1093;64284;-90
2021/06/16 03:52:07;;;;;;;16.17;14.53;;;;;;;21.88;60.65;99105.48;125019;1093;64183;-89
2021/06/16 03:54:36;;;;;;;15.90;14.40;;;;;;;22.36;59.80;99106.42;125011;1093;64287;-90
2021/06/16 03:57:05;;;;;;;16.03;13.87;;;;;;;22.84;58.73;99096.34;124966;1093;64297;-90
2021/06/16 03:59:32;;;;;;;16.90;14.60;;;;;;;23.26;57.80;99097.78;125020;1093;64274;-90
2021/06/16 04:02:00;;;;;;;15.13;13.50;;;;;;;23.66;56.66;99102.02;125011;1093;64862;-91
2021/06/16 04:04:28;;;;;;;15.00;13.40;;;;;;;24.04;56.06;99101.16;124949;1093;64223;-90
2021/06/16 04:06:58;;;;;;;15.33;13.77;;;;;;;24.48;54.54;99101.19;125036;1093;64425;-90
2021/06/16 04:09:26;;;;;;;;;;;;;;;24.79;53.41;99097.39;125023;1093;63089;-90
2021/06/16 04:11:53;;;;;;;14.17;12.67;;;;;;;24.99;53.01;99100.36;125061;1093;64178;-91
2021/06/16 04:14:23;;;;;;;13.33;12.07;;;;;;;25.22;51.84;99099.34;124921;1093;64309;-90
2021/06/16 04:16:55;;;;;;;14.33;12.17;;;;;;;25.29;51.53;99103.83;124964;1093;64364;-92
2021/06/16 04:19:23;;;;;;;15.70;14.13;;;;;;;25.46;50.72;99096.24;124984;1093;64329;-91
2021/06/16 04:21:50;;;;;;;16.80;14.07;;;;;;;25.58;50.67;99094.64;124989;1093;64383;-90
2021/06/16 04:24:17;;;;;;;15.13;13.63;;;;;;;25.82;49.77;99100.72;124976;1093;64290;-91
2021/06/16 04:26:45;;;;;;;14.80;13.07;;;;;;;26.11;49.24;99112.51;125028;1093;64399;-91
2021/06/16 04:29:12;;;;;;;14.77;13.23;;;;;;;26.11;48.81;99105.16;124957;1093;64281;-90
2021/06/16 04:31:40;;;;;;;13.37;11.90;;;;;;;26.35;47.97;99111.18;125083;1093;64363;-90
2021/06/16 04:34:08;;;;;;;13.23;11.60;;;;;;;26.53;47.42;99100.58;124922;1093;64338;-92
2021/06/16 04:36:35;;;;;;;12.80;11.50;;;;;;;26.82;47.22;99106.80;125064;1093;64284;-92
2021/06/16 04:39:03;;;;;;;12.37;10.77;;;;;;;27.06;46.63;99105.40;125083;1093;64271;-91
2021/06/16 04:41:30;;;;;;;11.93;10.00;;;;;;;27.29;46.02;99099.59;124981;1093;64255;-89
2021/06/16 04:43:58;;;;;;;11.60;10.40;;;;;;;27.51;45.57;99108.45;124969;1093;64364;-90
2021/06/16 04:46:26;;;;;;;11.57;9.70;;;;;;;27.74;44.29;99100.66;125044;1093;64731;-91
2021/06/16 04:48:53;;;;;;;11.00;9.90;;;;;;;27.81;44.06;99102.61;125090;1091;64280;-89
2021/06/16 04:51:20;;;;;;;10.37;9.33;;;;;;;27.91;44.07;99108.47;125029;1093;64274;-90
2021/06/16 04:53:48;;;;;;;10.13;8.87;;;;;;;28.10;43.49;99109.53;124926;1093;64344;-89
2021/06/16 04:56:15;;;;;;;11.50;10.33;;;;;;;28.22;42.78;99099.58;124948;1093;64361;-90
2021/06/16 04:58:42;;;;;;;10.73;9.73;;;;;;;28.44;42.38;99103.78;125079;1093;64280;-90
2021/06/16 05:01:10;;;;;;;11.70;9.83;;;;;;;28.53;42.19;99098.89;125065;1093;64287;-89
2021/06/16 05:03:38;;;;;;;9.87;8.93;;;;;;;28.53;41.92;99106.28;125000;1093;64274;-89
2021/06/16 05:06:05;;;;;;;11.10;9.63;;;;;;;28.58;41.71;99107.30;125018;1093;64272;-90
2021/06/16 05:08:33;;;;;;;11.07;9.13;;;;;;;28.65;41.03;99101.81;125069;1092;64269;-90
2021/06/16 05:11:00;;;;;;;11.00;9.67;;;;;;;28.73;41.05;99101.56;125060;1093;64453;-91
2021/06/16 05:13:27;;;;;;;10.03;9.03;;;;;;;28.77;40.36;99108.28;125058;1093;64198;-89
2021/06/16 05:15:56;;;;;;;10.87;9.57;;;;;;;28.84;40.03;99102.77;125022;1093;64376;-89
2021/06/16 05:18:23;;;;;;;9.30;8.40;;;;;;;28.82;39.79;99104.89;125140;1093;64271;-91
2021/06/16 05:20:50;;;;;;;10.00;8.97;;;;;;;28.77;39.61;99111.02;125014;1093;64564;-90
2021/06/16 05:23:18;;;;;;;8.67;7.77;;;;;;;28.83;38.87;99118.40;125019;1093;64290;-90
2021/06/16 05:25:48;;;;;;;9.10;8.13;;;;;;;28.92;39.22;99109.91;125058;1093;64279;-90
2021/06/16 05:28:15;;;;;;;10.00;8.67;;;;;;;29.05;38.64;99116.20;124986;1092;64280;-91
2021/06/16 05:30:43;;;;;;;9.27;8.07;;;;;;;29.16;38.39;99109.17;124906;1093;64319;-91
2021/06/16 05:33:10;;;;;;;11.00;8.40;;;;;;;29.06;38.49;99112.38;125053;1093;64230;-90
2021/06/16 05:35:37;;;;;;;10.20;8.60;;;;;;;29.12;37.76;99115.31;124932;1093;64296;-90
2021/06/16 05:38:05;;;;;;;14.77;8.87;;;;;;;29.09;37.87;99113.84;125021;1093;64278;-90
2021/06/16 05:40:32;;;;;;;10.10;9.10;;;;;;;29.22;38.01;99124.75;125035;1093;64221;-90
2021/06/16 05:42:59;;;;;;;11.90;8.27;;;;;;;29.44;37.76;99122.51;124994;1093;64258;-91
2021/06/16 05:45:27;;;;;;;12.13;8.33;;;;;;;29.53;37.72;99126.66;125195;1093;64437;-91
2021/06/16 05:47:54;;;;;;;13.73;8.60;;;;;;;29.69;37.58;99118.97;125041;1093;64290;-90
2021/06/16 05:50:22;;;;;;;11.50;9.00;;;;;;;29.63;37.48;99128.91;125134;1093;64338;-90
2021/06/16 05:52:49;;;;;;;10.20;8.33;;;;;;;29.68;37.64;99122.79;125114;1093;64334;-89
2021/06/16 05:55:17;;;;;;;21.90;9.70;;;;;;;29.76;37.89;99119.76;125086;1092;64589;-90
2021/06/16 05:57:44;;;;;;;11.63;8.50;;;;;;;29.59;38.20;99122.17;125416;1093;64288;-90
2021/06/16 06:00:12;;;;;;;11.07;8.57;;;;;;;29.63;38.18;99126.16;125033;1092;64202;-91
2021/06/16 06:02:39;;;;;;;9.17;8.27;;;;;;;29.69;37.69;99125.30;125031;1093;64444;-90
2021/06/16 06:05:26;;;;;;;10.37;7.90;;;;;;;29.74;37.08;99116.39;125178;1093;64227;-90
2021/06/16 06:07:53;;;;;;;10.07;8.20;;;;;;;29.72;37.27;99127.59;124989;1093;64359;-90
2021/06/16 06:10:21;;;;;;;9.00;8.00;;;;;;;29.64;37.17;99122.38;125038;1093;64447;-90
2021/06/16 06:12:48;;;;;;;10.00;8.20;;;;;;;29.74;37.09;99132.88;125037;1093;64326;-89
2021/06/16 06:15:16;;;;;;;9.57;8.00;;;;;;;29.89;37.09;99132.55;125051;1093;64223;-90
2021/06/16 06:17:43;;;;;;;9.83;8.07;;;;;;;30.01;36.57;99132.64;125049;1093;64197;-90
2021/06/16 06:20:11;;;;;;;9.47;8.03;;;;;;;30.06;36.23;99136.39;125132;1093;64913;-88
2021/06/16 06:22:39;;;;;;;10.95;8.40;;;;;;;30.04;35.96;99133.02;125022;1093;64263;-89
2021/06/16 06:25:06;;;;;;;10.97;8.70;;;;;;;30.25;35.71;99137.29;125855;1093;64274;-89
2021/06/16 06:27:35;;;;;;;10.03;8.55;;;;;;;30.45;35.63;99133.51;126882;1093;64163;-90
2021/06/16 06:30:07;;;;;;;10.40;8.43;;;;;;;30.54;35.89;99138.45;127236;1093;62189;-90
2021/06/16 06:32:35;;;;;;;12.70;8.50;;;;;;;30.55;35.51;99136.56;126967;1093;64127;-89
2021/06/16 06:35:03;;;;;;;10.23;8.57;;;;;;;30.52;35.50;99137.03;126315;1092;64383;-83
2021/06/16 06:37:31;;;;;;;9.27;8.10;;;;;;;30.48;35.35;99127.55;125429;1093;64309;-86
2021/06/16 06:39:59;;;;;;;10.73;8.97;;;;;;;30.14;35.39;99133.34;124758;1092;64249;-88
2021/06/16 06:42:26;;;;;;;12.00;8.60;;;;;;;30.07;36.06;99127.09;124912;1093;64380;-86
2021/06/16 06:44:53;;;;;;;9.27;8.37;;;;;;;30.14;35.86;99129.77;124954;1093;64296;-84
2021/06/16 06:47:25;;;;;;;10.37;9.00;;;;;;;30.16;35.57;99130.38;124934;1093;64247;-80
2021/06/16 06:49:53;;;;;;;10.17;8.37;;;;;;;30.04;36.17;99127.52;124778;1092;64374;-79
2021/06/16 06:52:21;;;;;;;11.63;8.17;;;;;;;29.98;35.96;99129.27;124691;1093;64657;-79
2021/06/16 06:54:48;;;;;;;12.27;9.33;;;;;;;30.11;35.96;99120.06;124631;1093;64287;-80
2021/06/16 06:57:16;;;;;;;14.20;9.75;;;;;;;30.43;35.87;99121.88;124689;1093;64300;-80
2021/06/16 06:59:43;;;;;;;11.43;8.80;;;;;;;30.42;35.79;99126.55;124649;1093;64438;-80
2021/06/16 07:02:10;;;;;;;11.60;9.27;;;;;;;30.30;35.80;99117.36;124659;1093;64251;-80
2021/06/16 07:04:37;;;;;;;10.80;8.97;;;;;;;30.10;35.96;99118.39;124868;1093;64301;-81
2021/06/16 07:07:05;;;;;;;10.87;8.90;;;;;;;30.11;36.33;99122.81;124686;1093;64271;-77
2021/06/16 07:09:32;;;;;;;10.27;9.13;;;;;;;30.22;36.56;99123.13;124673;1093;64345;-78
2021/06/16 07:11:59;;;;;;;11.63;8.97;;;;;;;30.30;36.25;99120.11;124704;1092;64254;-77
2021/06/16 07:14:26;;;;;;;9.67;8.40;;;;;;;30.27;36.37;99115.91;124636;1093;64361;-80
2021/06/16 07:16:53;;;;;;;11.10;7.80;;;;;;;30.43;34.95;99127.39;124692;1093;64287;-78
2021/06/16 07:19:21;;;;;;;13.70;7.57;;;;;;;30.50;34.26;99120.74;124709;1093;64315;-78
2021/06/16 07:21:48;;;;;;;8.07;6.77;;;;;;;30.35;34.15;99123.02;124678;1093;64287;-77
2021/06/16 07:24:17;;;;;;;9.50;7.47;;;;;;;30.22;34.25;99128.63;124639;1092;64276;-78
2021/06/16 07:26:44;;;;;;;8.30;6.30;;;;;;;30.22;34.14;99128.63;124696;1093;64261;-78
2021/06/16 07:29:12;;;;;;;13.47;7.40;;;;;;;30.16;34.32;99124.89;124652;1093;64296;-78
2021/06/16 07:31:39;;;;;;;7.97;7.17;;;;;;;30.02;34.17;99128.81;124678;1093;64450;-78
2021/06/16 07:34:07;;;;;;;8.30;7.40;;;;;;;29.51;33.93;99126.02;124715;1093;64293;-78
2021/06/16 07:36:34;;;;;;;8.80;5.83;;;;;;;28.98;33.91;99128.23;124644;1093;64367;-76
2021/06/16 07:39:03;;;;;;;10.65;6.45;;;;;;;28.61;34.72;99138.94;124670;1093;64296;-78
2021/06/16 07:41:31;;;;;;;;;;;;;;;28.31;34.73;99135.84;124724;1093;64290;-76
2021/06/16 07:43:58;;;;;;;7.80;5.43;;;;;;;27.98;34.55;99137.55;124628;1093;64274;-77
2021/06/16 07:46:25;;;;;;;6.90;5.23;;;;;;;27.88;35.73;99139.87;124652;1093;64414;-78
2021/06/16 07:48:53;;;;;;;6.17;5.27;;;;;;;27.81;35.30;99143.69;124732;1093;64373;-77
2021/06/16 07:51:21;;;;;;;5.80;4.20;;;;;;;27.67;34.65;99137.31;124734;1093;64214;-76
2021/06/16 07:53:48;;;;;;;6.20;5.60;;;;;;;27.60;34.39;99144.70;124670;1093;64250;-76
2021/06/16 07:56:15;;;;;;;5.73;5.07;;;;;;;27.56;35.02;99141.52;124712;1093;64298;-76
2021/06/16 07:58:43;;;;;;;7.30;5.90;;;;;;;27.52;34.77;99145.74;124664;1093;64191;-77
2021/06/16 08:01:11;;;;;;;6.37;5.27;;;;;;;27.45;35.13;99142.98;124732;1093;64401;-77
2021/06/16 08:03:38;;;;;;;8.97;5.57;;;;;;;27.35;35.59;99145.27;124783;1093;64218;-77
2021/06/16 08:06:06;;;;;;;6.57;5.77;;;;;;;27.30;35.48;99139.58;124697;1093;64287;-76
2021/06/16 08:08:33;;;;;;;7.10;5.00;;;;;;;27.22;35.53;99145.25;124652;1093;64274;-77
2021/06/16 08:11:01;;;;;;;6.47;4.33;;;;;;;27.27;35.88;99146.31;124708;1092;64290;-77
2021/06/16 08:13:30;;;;;;;6.30;5.70;;;;;;;27.35;35.96;99143.38;124745;1093;64500;-77
2021/06/16 08:15:58;;;;;;;7.33;5.90;;;;;;;27.42;35.84;99154.35;124702;1093;64293;-77
2021/06/16 08:18:25;;;;;;;6.37;5.77;;;;;;;27.32;36.35;99149.27;124746;1093;64275;-77
2021/06/16 08:20:53;;;;;;;7.35;5.55;;;;;;;27.35;36.47;99150.75;124651;1093;64274;-79
2021/06/16 08:23:20;;;;;;;9.17;6.03;;;;;;;27.33;36.59;99152.84;124694;1093;64290;-77
2021/06/16 08:25:48;;;;;;;6.23;5.20;;;;;;;27.34;37.41;99152.65;124675;1093;64293;-77
2021/06/16 08:28:15;;;;;;;7.45;6.50;;;;;;;27.46;38.13;99152.03;124712;1093;64290;-77
2021/06/16 08:30:42;;;;;;;6.10;5.53;;;;;;;27.56;37.38;99158.78;124656;1093;64228;-77
2021/06/16 08:33:10;;;;;;;7.60;5.70;;;;;;;27.47;36.44;99153.73;124658;1093;64271;-78
2021/06/16 08:35:38;;;;;;;6.63;5.20;;;;;;;27.39;36.91;99151.20;124659;1093;64444;-76
2021/06/16 08:38:05;;;;;;;6.83;5.77;;;;;;;27.47;36.87;99154.57;124712;1093;64267;-77
2021/06/16 08:40:33;;;;;;;7.23;5.80;;;;;;;27.56;37.36;99150.56;124628;1093;64358;-78
2021/06/16 08:43:00;;;;;;;7.27;5.37;;;;;;;27.55;36.62;99156.27;124739;1093;64258;-78
2021/06/16 08:45:35;;;;;;;8.65;6.45;;;;;;;27.54;37.17;99158.17;124669;1093;64279;-77
2021/06/16 08:48:03;;;;;;;5.93;5.33;;;;;;;27.55;36.18;99161.75;124659;1093;64271;-77
2021/06/16 08:50:31;;;;;;;6.07;5.30;;;;;;;27.55;36.42;99159.84;124690;1093;64312;-76
2021/06/16 08:52:58;;;;;;;6.57;5.67;;;;;;;27.62;36.74;99156.27;124658;1093;64290;-78
2021/06/16 08:55:25;;;;;;;5.63;5.00;;;;;;;27.72;37.05;99157.53;124691;1093;64291;-78
2021/06/16 08:57:53;;;;;;;4.93;4.40;;;;;;;27.89;37.18;99158.02;124685;1093;64316;-78
2021/06/16 09:00:22;;;;;;;4.70;4.30;;;;;;;27.95;35.59;99156.31;124656;1093;64245;-77
2021/06/16 09:02:50;;;;;;;6.17;4.27;;;;;;;27.86;34.52;99155.70;124723;1093;64329;-77
2021/06/16 09:05:17;;;;;;;6.47;4.57;;;;;;;27.71;34.63;99168.72;124689;1093;64347;-76
2021/06/16 09:07:46;;;;;;;7.37;5.63;;;;;;;27.64;34.70;99162.38;124655;1093;64199;-77
2021/06/16 09:10:14;;;;;;;5.63;4.80;;;;;;;27.63;35.65;99160.70;124669;1093;64307;-76
2021/06/16 09:12:53;;;;;;;5.43;4.93;;;;;;;27.78;36.65;99159.45;124657;1093;64275;-76
2021/06/16 09:15:24;;;;;;;5.80;4.10;;;;;;;27.88;36.52;99161.78;124672;1093;64271;-77
2021/06/16 09:18:06;;;;;;;5.53;4.73;;;;;;;27.97;36.15;99157.80;124730;1093;64199;-77
2021/06/16 09:20:43;;;;;;;5.53;4.83;;;;;;;27.97;35.82;99160.53;124673;1093;64294;-77
2021/06/16 09:23:12;;;;;;;6.63;5.00;;;;;;;27.99;35.93;99157.59;124727;1093;64319;-77
2021/06/16 09:25:41;;;;;;;5.97;5.20;;;;;;;28.12;36.00;99156.72;124670;1093;64223;-77
2021/06/16 09:28:09;;;;;;;6.33;4.73;;;;;;;28.15;35.68;99157.16;124755;1093;64354;-78
2021/06/16 09:30:43;;;;;;;6.23;5.10;;;;;;;28.19;36.21;99160.30;124691;1092;64386;-78
2021/06/16 09:33:16;;;;;;;5.43;4.93;;;;;;;28.29;34.93;99162.61;124693;1093;64202;-78
2021/06/16 09:35:47;;;;;;;7.87;5.03;;;;;;;28.30;36.40;99161.55;124723;1091;64275;-77
2021/06/16 09:38:32;;;;;;;5.60;5.10;;;;;;;28.37;36.10;99159.64;124691;1093;64194;-77
2021/06/16 09:41:01;;;;;;;5.87;5.33;;;;;;;28.37;35.10;99157.74;124713;1092;64278;-77
2021/06/16 09:43:30;;;;;;;7.90;5.50;;;;;;;28.28;35.42;99152.69;124672;1093;64255;-78
2021/06/16 09:46:03;;;;;;;6.68;4.95;;;;;;;28.37;36.03;99156.91;124715;1093;64290;-78
2021/06/16 09:48:41;;;;;;;8.57;5.83;;;;;;;28.53;36.34;99142.76;124689;1093;64244;-78
2021/06/16 09:51:33;;;;;;;9.73;6.53;;;;;;;28.51;35.73;99158.58;124676;1093;64290;-78
2021/06/16 09:54:14;;;;;;;7.00;5.37;;;;;;;28.37;35.72;99155.00;124730;1093;64264;-77
2021/06/16 09:56:45;;;;;;;7.03;5.67;;;;;;;28.36;36.28;99158.81;124718;1093;64290;-78
2021/06/16 09:59:13;;;;;;;6.13;4.77;;;;;;;28.44;36.30;99152.29;124742;1093;64287;-77
2021/06/16 10:01:54;;;;;;;5.20;4.50;;;;;;;28.46;36.36;99155.63;124729;1093;64223;-76
2021/06/16 10:04:45;;;;;;;5.73;4.83;;;;;;;28.58;37.06;99153.09;124670;1093;64310;-77
2021/06/16 10:07:14;;;;;;;6.20;5.10;;;;;;;28.74;36.84;99149.86;124678;1093;64293;-78
2021/06/16 10:10:09;;;;;;;5.90;5.30;;;;;;;28.76;36.16;99144.17;124681;1093;64297;-77
2021/06/16 10:12:39;;;;;;;8.70;5.20;;;;;;;28.68;36.14;99150.73;124692;1093;64293;-78
2021/06/16 10:15:12;;;;;;;6.43;5.28;;;;;;;28.68;35.84;99139.77;124736;1093;64194;-77
2021/06/16 10:17:40;;;;;;;5.53;5.03;;;;;;;28.75;36.45;99148.79;124683;1093;64270;-76
2021/06/16 10:20:09;;;;;;;6.07;5.03;;;;;;;28.82;36.54;99141.39;124745;1093;64524;-78
2021/06/16 10:22:37;;;;;;;5.47;4.63;;;;;;;28.91;36.53;99133.74;124622;1093;64312;-76
2021/06/16 10:25:05;;;;;;;5.97;4.77;;;;;;;29.00;36.51;99148.91;124685;1093;64196;-77
2021/06/16 10:27:39;;;;;;;9.10;5.27;;;;;;;28.95;35.53;99142.40;124646;1093;64348;-77
2021/06/16 10:30:13;;;;;;;4.97;4.47;;;;;;;28.86;35.99;99144.56;124664;1093;64277;-80
2021/06/16 10:32:43;;;;;;;5.75;4.75;;;;;;;28.91;36.29;99133.74;124728;1093;64393;-78
2021/06/16 10:35:13;;;;;;;8.23;5.50;;;;;;;29.00;37.09;99140.68;124726;1093;64354;-78
2021/06/16 10:37:45;;;;;;;6.30;5.10;;;;;;;29.07;36.17;99144.27;124806;1093;64230;-78
2021/06/16 10:40:18;;;;;;;5.93;5.30;;;;;;;29.14;35.57;99148.88;124675;1093;64251;-78
2021/06/16 10:43:02;;;;;;;7.67;5.93;;;;;;;29.15;35.02;99142.31;124643;1093;64275;-77
2021/06/16 10:45:34;;;;;;;6.43;5.37;;;;;;;29.07;36.51;99147.02;124686;1093;64232;-78
2021/06/16 10:48:06;;;;;;;6.50;5.17;;;;;;;29.21;36.10;99144.20;124681;1093;64263;-78
2021/06/16 10:50:57;;;;;;;8.03;5.80;;;;;;;29.25;36.03;99142.68;124704;1092;64290;-78
2021/06/16 10:53:25;;;;;;;9.10;5.20;;;;;;;29.18;36.11;99134.50;124571;1093;64271;-77
2021/06/16 10:55:52;;;;;;;7.90;5.67;;;;;;;29.29;36.67;99136.53;124632;1093;64275;-78
2021/06/16 10:58:25;;;;;;;6.07;5.33;;;;;;;29.42;37.20;99140.27;124713;1093;64287;-76
2021/06/16 11:01:44;;;;;;;5.83;5.33;;;;;;;29.51;37.02;99141.67;124690;1093;64287;-77
2021/06/16 11:04:24;;;;;;;;;;;;;;;29.50;36.41;99135.34;124095;1096;64361;-77
2021/06/16 11:06:52;;;;;;;5.97;5.20;;;;;;;29.56;36.93;99136.35;124129;1096;64281;-77
2021/06/16 11:09:52;;;;;;;6.50;5.20;;;;;;;29.57;35.80;99135.31;124414;1091;64297;-76
2021/06/16 11:12:30;;;;;;;6.67;5.50;;;;;;;29.49;36.63;99135.55;124707;1093;64399;-76
2021/06/16 11:14:59;;;;;;;7.45;5.30;;;;;;;29.53;36.65;99131.31;124693;1092;64380;-76
2021/06/16 11:17:29;;;;;;;7.10;5.20;;;;;;;29.50;36.21;99129.02;124693;1093;64294;-77
2021/06/16 11:19:59;;;;;;;6.53;5.80;;;;;;;29.42;35.65;99132.87;124725;1093;64251;-77
2021/06/16 11:22:29;;;;;;;8.53;5.67;;;;;;;29.39;36.14;99124.24;124711;1093;64191;-77
2021/06/16 11:25:19;;;;;;;6.63;5.77;;;;;;;29.49;35.91;99125.43;124738;1093;64271;-77
2021/06/16 11:28:02;;;;;;;7.27;5.83;;;;;;;29.55;36.03;99123.70;124687;1093;64275;-76
2021/06/16 11:30:53;;;;;;;7.60;5.80;;;;;;;29.62;36.07;99132.73;124668;1092;64779;-78
2021/06/16 11:33:21;;;;;;;6.10;5.25;;;;;;;29.63;35.68;99117.92;124672;1093;64315;-78
2021/06/16 11:35:52;;;;;;;5.63;5.10;;;;;;;29.70;35.40;99110.52;124623;1093;64313;-77